Middle Georgia Regional Airport Airport (MCN)

 

Airport Diagram
Current Weather/Forecast (LIFR Conditions)
METAR KMCN 290353Z AUTO 06004KT 9SM OVC003 14/13 A3010 RMK AO2 SLP192 T01390128
TAF KMCN 290304Z 2903/2924 08004KT 5SM BR SCT008 BKN015 TEMPO 2903/2907 3SM BR BKN006 FM290700 08004KT 3SM BR BKN005 FM291500 09006KT P6SM VCSH BKN008 FM291900 10006KT 4SM -RA BR OVC006

All Charts
General
Chart Name Download
AIRPORT DIAGRAM
TAKEOFF MINIMUMS
ALTERNATE MINIMUMS

Approaches
Chart Name Download
ILS OR LOC RWY 05
ILS RWY 05 (SA CAT I - II)
RNAV (GPS) RWY 05
RNAV (GPS) RWY 14
RNAV (GPS) RWY 23
RNAV (GPS) RWY 32
VOR RWY 14
VOR RWY 23


Inbound Traffic (Arrivals)

No inbound traffic.


Outbound Traffic (Departures)

No outbound traffic.